createdAt,value
2019-03-30T00:00:38.712Z,10.28
2019-03-30T00:01:38.687Z,10.19
2019-03-30T00:02:40.420Z,10.23
2019-03-30T00:03:38.637Z,10.2
2019-03-30T00:04:38.614Z,10.22
2019-03-30T00:05:38.588Z,10.15
2019-03-30T00:06:38.561Z,10.22
2019-03-30T00:07:38.554Z,10.22
2019-03-30T00:08:38.511Z,10.07
2019-03-30T00:09:38.482Z,10.1
2019-03-30T00:10:38.459Z,10.15
2019-03-30T00:11:38.438Z,10.07
2019-03-30T00:12:38.444Z,10.02
2019-03-30T00:13:38.387Z,10.02
2019-03-30T00:14:38.358Z,10.02
2019-03-30T00:15:38.341Z,9.99
2019-03-30T00:16:38.312Z,10.02
2019-03-30T00:17:38.283Z,10.02
2019-03-30T00:18:41.156Z,10.02
2019-03-30T00:19:39.968Z,10.05
2019-03-30T00:20:38.217Z,10.01
2019-03-30T00:21:38.191Z,9.98
2019-03-30T00:22:38.176Z,9.97
2019-03-30T00:23:38.142Z,9.87
2019-03-30T00:24:38.118Z,9.89
2019-03-30T00:25:38.094Z,9.95
2019-03-30T00:26:38.064Z,9.84
2019-03-30T00:27:38.042Z,9.95
2019-03-30T00:28:38.018Z,9.86
2019-03-30T00:29:37.989Z,9.84
2019-03-30T00:30:37.965Z,9.86
2019-03-30T00:31:37.940Z,9.97
2019-03-30T00:32:37.922Z,9.82
2019-03-30T00:33:37.895Z,9.77
2019-03-30T00:34:37.870Z,9.77
2019-03-30T00:35:37.851Z,9.74
2019-03-30T00:36:37.814Z,9.73
2019-03-30T00:37:37.788Z,9.74
2019-03-30T00:38:37.778Z,9.65
2019-03-30T00:39:37.739Z,9.65
2019-03-30T00:40:37.808Z,9.66
2019-03-30T00:41:37.741Z,9.68
2019-03-30T00:42:37.671Z,9.64
2019-03-30T00:43:37.640Z,9.58
2019-03-30T00:44:37.613Z,9.59
2019-03-30T00:45:37.593Z,9.59
2019-03-30T00:46:37.572Z,9.58
2019-03-30T00:47:37.550Z,9.48
2019-03-30T00:48:37.513Z,9.44
2019-03-30T00:49:50.751Z,9.47
2019-03-30T00:50:37.458Z,9.5
2019-03-30T00:51:37.456Z,9.5
2019-03-30T00:52:37.414Z,9.54
2019-03-30T00:53:37.388Z,9.46
2019-03-30T00:54:37.462Z,9.36
2019-03-30T00:55:37.338Z,9.36
2019-03-30T00:56:37.314Z,9.36
2019-03-30T00:57:37.291Z,9.29
2019-03-30T00:58:37.265Z,9.41
2019-03-30T00:59:37.248Z,9.36
2019-03-30T01:00:37.232Z,9.39
2019-03-30T01:01:37.204Z,9.25
2019-03-30T01:02:37.159Z,9.25
2019-03-30T01:03:37.139Z,9.31
2019-03-30T01:04:37.118Z,9.23
2019-03-30T01:05:37.092Z,9.21
2019-03-30T01:06:37.066Z,9.26
2019-03-30T01:07:37.038Z,9.18
2019-03-30T01:08:37.013Z,9.22
2019-03-30T01:09:37.005Z,9.08
2019-03-30T01:10:36.958Z,9.14
2019-03-30T01:11:36.936Z,9.11
2019-03-30T01:12:36.909Z,9.11
2019-03-30T01:13:36.887Z,9.11
2019-03-30T01:14:36.869Z,9.04
2019-03-30T01:15:36.831Z,9.16
2019-03-30T01:16:36.810Z,9.13
2019-03-30T01:17:36.807Z,9.13
2019-03-30T01:18:36.758Z,9
2019-03-30T01:19:36.738Z,9.03
2019-03-30T01:20:36.711Z,9.04
2019-03-30T01:21:36.686Z,8.99
2019-03-30T01:22:36.658Z,8.91
2019-03-30T01:23:36.630Z,8.97
2019-03-30T01:24:36.659Z,8.92
2019-03-30T01:25:36.588Z,8.92
2019-03-30T01:26:36.584Z,8.91
2019-03-30T01:27:36.604Z,9
2019-03-30T01:28:36.501Z,8.94
2019-03-30T01:29:36.481Z,8.97
2019-03-30T01:30:36.452Z,8.91
2019-03-30T01:31:36.433Z,8.94
2019-03-30T01:32:39.820Z,8.92
2019-03-30T01:33:36.377Z,8.84
2019-03-30T01:34:36.363Z,8.84
2019-03-30T01:35:36.326Z,8.87
2019-03-30T01:36:36.305Z,8.85
2019-03-30T01:37:36.275Z,8.87
2019-03-30T01:38:36.254Z,8.85
2019-03-30T01:39:36.227Z,8.78
2019-03-30T01:40:36.208Z,8.79
2019-03-30T01:41:36.173Z,8.79
2019-03-30T01:42:36.187Z,8.79
2019-03-30T01:43:36.146Z,8.87
2019-03-30T01:44:36.098Z,8.79
2019-03-30T01:45:36.155Z,8.79
2019-03-30T01:46:36.147Z,8.81
2019-03-30T01:47:36.022Z,8.76
2019-03-30T01:48:35.995Z,8.79
2019-03-30T01:49:35.971Z,8.85
2019-03-30T01:50:35.944Z,8.87
2019-03-30T01:51:35.920Z,8.85
2019-03-30T01:52:35.891Z,8.89
2019-03-30T01:53:35.859Z,8.85
2019-03-30T01:54:35.838Z,8.81
2019-03-30T01:55:35.814Z,8.78
2019-03-30T01:56:35.787Z,8.84
2019-03-30T01:57:35.773Z,8.82
2019-03-30T01:58:35.734Z,8.79
2019-03-30T01:59:35.713Z,8.81
2019-03-30T02:00:35.681Z,8.82
2019-03-30T02:01:35.666Z,8.74
2019-03-30T02:02:35.638Z,8.76
2019-03-30T02:03:35.612Z,8.73
2019-03-30T02:04:35.588Z,8.7
2019-03-30T02:05:35.555Z,8.6
2019-03-30T02:06:35.535Z,8.6
2019-03-30T02:07:35.504Z,8.67
2019-03-30T02:08:35.486Z,8.61
2019-03-30T02:09:35.454Z,8.67
2019-03-30T02:10:35.430Z,8.61
2019-03-30T02:11:35.477Z,8.63
2019-03-30T02:12:35.469Z,8.67
2019-03-30T02:13:35.353Z,8.67
2019-03-30T02:14:35.329Z,8.67
2019-03-30T02:15:35.340Z,8.64
2019-03-30T02:16:35.291Z,8.64
2019-03-30T02:17:35.247Z,8.63
2019-03-30T02:18:35.233Z,8.63
2019-03-30T02:19:35.197Z,8.55
2019-03-30T02:20:35.927Z,8.58
2019-03-30T02:21:35.152Z,8.63
2019-03-30T02:22:35.119Z,8.6
2019-03-30T02:23:35.092Z,8.61
2019-03-30T02:24:35.065Z,8.55
2019-03-30T02:25:35.038Z,8.61
2019-03-30T02:26:35.014Z,8.58
2019-03-30T02:27:35.002Z,8.44
2019-03-30T02:28:34.983Z,8.49
2019-03-30T02:29:34.942Z,8.52
2019-03-30T02:30:34.924Z,8.55
2019-03-30T02:31:34.894Z,8.55
2019-03-30T02:32:34.864Z,8.46
2019-03-30T02:33:34.869Z,8.44
2019-03-30T02:34:34.590Z,8.46
2019-03-30T02:35:34.783Z,8.45
2019-03-30T02:36:34.765Z,8.46
2019-03-30T02:37:34.740Z,8.52
2019-03-30T02:38:34.720Z,8.42
2019-03-30T02:39:34.686Z,8.44
2019-03-30T02:40:34.677Z,8.51
2019-03-30T02:41:34.659Z,8.55
2019-03-30T02:42:34.602Z,8.53
2019-03-30T02:43:34.590Z,8.45
2019-03-30T02:44:34.567Z,8.45
2019-03-30T02:45:34.529Z,8.53
2019-03-30T02:46:34.509Z,8.45
2019-03-30T02:47:34.499Z,8.42
2019-03-30T02:48:34.454Z,8.51
2019-03-30T02:49:34.204Z,8.48
2019-03-30T02:50:51.471Z,8.46
2019-03-30T02:51:34.385Z,8.41
2019-03-30T02:52:34.348Z,8.36
2019-03-30T02:53:34.328Z,8.31
2019-03-30T02:54:34.303Z,8.23
2019-03-30T02:55:34.286Z,8.3
2019-03-30T02:56:34.254Z,8.28
2019-03-30T02:57:34.521Z,8.19
2019-03-30T02:58:34.198Z,8.2
2019-03-30T02:59:34.167Z,8.24
2019-03-30T03:00:34.139Z,8.23
2019-03-30T03:01:34.133Z,8.27
2019-03-30T03:02:34.088Z,8.2
2019-03-30T03:03:34.067Z,8.2
2019-03-30T03:04:33.812Z,8.19
2019-03-30T03:05:34.068Z,8.27
2019-03-30T03:06:33.993Z,8.19
2019-03-30T03:07:33.974Z,8.27
2019-03-30T03:08:33.932Z,8.3
2019-03-30T03:09:33.685Z,8.23
2019-03-30T03:10:33.889Z,8.23
2019-03-30T03:11:33.617Z,8.31
2019-03-30T03:12:33.830Z,8.24
2019-03-30T03:13:33.800Z,8.18
2019-03-30T03:14:33.782Z,8.26
2019-03-30T03:15:33.750Z,8.3
2019-03-30T03:16:33.725Z,8.33
2019-03-30T03:17:33.699Z,8.31
2019-03-30T03:18:33.678Z,8.27
2019-03-30T03:19:33.643Z,8.3
2019-03-30T03:20:33.683Z,8.23
2019-03-30T03:21:33.615Z,8.3
2019-03-30T03:22:33.570Z,8.26
2019-03-30T03:23:33.552Z,8.33
2019-03-30T03:24:33.523Z,8.31
2019-03-30T03:25:33.496Z,8.34
2019-03-30T03:26:33.478Z,8.34
2019-03-30T03:27:33.479Z,8.36
2019-03-30T03:28:33.441Z,8.41
2019-03-30T03:29:33.395Z,8.41
2019-03-30T03:30:33.394Z,8.42
2019-03-30T03:31:33.377Z,8.42
2019-03-30T03:32:33.344Z,8.42
2019-03-30T03:33:33.302Z,8.46
2019-03-30T03:34:33.050Z,8.45
2019-03-30T03:35:33.245Z,8.45
2019-03-30T03:36:33.215Z,8.44
2019-03-30T03:37:49.069Z,8.46
2019-03-30T03:38:33.158Z,8.52
2019-03-30T03:39:33.131Z,8.42
2019-03-30T03:40:33.117Z,8.44
2019-03-30T03:41:33.077Z,8.42
2019-03-30T03:42:33.050Z,8.41
2019-03-30T03:43:33.158Z,8.48
2019-03-30T03:44:33.003Z,8.48
2019-03-30T03:45:32.979Z,8.45
2019-03-30T03:46:32.955Z,8.48
2019-03-30T03:47:32.913Z,8.44
2019-03-30T03:48:32.913Z,8.42
2019-03-30T03:49:32.894Z,8.46
2019-03-30T03:50:32.845Z,8.46
2019-03-30T03:51:32.819Z,8.46
2019-03-30T03:52:32.809Z,8.45
2019-03-30T03:53:32.765Z,8.45
2019-03-30T03:54:32.735Z,8.45
2019-03-30T03:55:32.738Z,8.37
2019-03-30T03:56:32.691Z,8.44
2019-03-30T03:57:32.679Z,8.38
2019-03-30T03:58:32.639Z,8.44
2019-03-30T03:59:32.620Z,8.38
2019-03-30T04:00:32.710Z,8.41
2019-03-30T04:01:32.567Z,8.34
2019-03-30T04:02:32.540Z,8.41
2019-03-30T04:03:32.512Z,8.33
2019-03-30T04:04:32.476Z,8.37
2019-03-30T04:05:32.464Z,8.31
2019-03-30T04:06:32.437Z,8.37
2019-03-30T04:07:32.187Z,8.3
2019-03-30T04:08:32.408Z,8.28
2019-03-30T04:09:32.360Z,8.28
2019-03-30T04:10:32.443Z,8.26
2019-03-30T04:11:32.297Z,8.18
2019-03-30T04:12:32.281Z,8.31
2019-03-30T04:13:32.261Z,8.26
2019-03-30T04:14:32.236Z,8.15
2019-03-30T04:15:32.188Z,8.26
2019-03-30T04:16:32.164Z,8.28
2019-03-30T04:17:32.139Z,8.31
2019-03-30T04:18:32.119Z,8.3
2019-03-30T04:19:32.092Z,8.2
2019-03-30T04:20:32.059Z,8.19
2019-03-30T04:21:47.683Z,8.28
2019-03-30T04:22:32.017Z,8.26
2019-03-30T04:23:31.992Z,8.24
2019-03-30T04:24:31.968Z,8.13
2019-03-30T04:25:31.937Z,8.18
2019-03-30T04:26:31.936Z,8.19
2019-03-30T04:27:31.888Z,8.23
2019-03-30T04:28:31.864Z,8.28
2019-03-30T04:29:31.863Z,8.2
2019-03-30T04:30:31.805Z,8.27
2019-03-30T04:31:31.775Z,8.18
2019-03-30T04:32:31.755Z,8.19
2019-03-30T04:33:31.737Z,8.16
2019-03-30T04:34:31.701Z,8.24
2019-03-30T04:35:31.681Z,8.2
2019-03-30T04:36:31.639Z,8.18
2019-03-30T04:37:31.655Z,8.2
2019-03-30T04:38:31.592Z,8.1
2019-03-30T04:39:31.570Z,8.1
2019-03-30T04:40:31.539Z,8.19
2019-03-30T04:41:31.516Z,8.12
2019-03-30T04:42:31.502Z,8.08
2019-03-30T04:43:31.460Z,8.08
2019-03-30T04:44:31.435Z,8.19
2019-03-30T04:45:31.410Z,8.16
2019-03-30T04:46:31.163Z,8.23
2019-03-30T04:47:31.364Z,8.19
2019-03-30T04:48:34.245Z,8.2
2019-03-30T04:49:31.302Z,8.16
2019-03-30T04:50:31.297Z,8.23
2019-03-30T04:51:31.250Z,8.2
2019-03-30T04:52:31.225Z,8.2
2019-03-30T04:53:31.197Z,8.3
2019-03-30T04:54:31.173Z,8.37
2019-03-30T04:55:31.145Z,8.31
2019-03-30T04:56:31.124Z,8.3
2019-03-30T04:57:31.093Z,8.34
2019-03-30T04:58:31.084Z,8.45
2019-03-30T04:59:31.043Z,8.36
2019-03-30T05:00:31.018Z,8.34
2019-03-30T05:01:31.061Z,8.33
2019-03-30T05:02:30.981Z,8.36
2019-03-30T05:03:30.940Z,8.48
2019-03-30T05:04:30.912Z,8.42
2019-03-30T05:05:30.894Z,8.46
2019-03-30T05:06:30.860Z,8.46
2019-03-30T05:07:30.841Z,8.55
2019-03-30T05:08:30.822Z,8.45
2019-03-30T05:09:30.778Z,8.42
2019-03-30T05:10:30.754Z,8.49
2019-03-30T05:11:30.728Z,8.46
2019-03-30T05:12:30.724Z,8.46
2019-03-30T05:13:30.677Z,8.45
2019-03-30T05:14:30.448Z,8.44
2019-03-30T05:15:30.627Z,8.42
2019-03-30T05:16:30.600Z,8.45
2019-03-30T05:17:48.522Z,8.42
2019-03-30T05:18:30.544Z,8.55
2019-03-30T05:19:30.738Z,8.45
2019-03-30T05:20:30.499Z,8.52
2019-03-30T05:21:30.474Z,8.51
2019-03-30T05:22:30.446Z,8.48
2019-03-30T05:23:30.518Z,8.44
2019-03-30T05:24:30.394Z,8.52
2019-03-30T05:25:30.370Z,8.55
2019-03-30T05:26:30.364Z,8.61
2019-03-30T05:27:30.181Z,8.63
2019-03-30T05:28:30.301Z,8.61
2019-03-30T05:29:30.267Z,8.66
2019-03-30T05:30:30.235Z,8.71
2019-03-30T05:31:30.210Z,8.76
2019-03-30T05:32:30.181Z,8.74
2019-03-30T05:33:30.157Z,8.84
2019-03-30T05:34:30.141Z,8.73
2019-03-30T05:35:30.105Z,8.79
2019-03-30T05:36:30.165Z,8.74
2019-03-30T05:37:30.080Z,8.84
2019-03-30T05:38:30.064Z,8.85
2019-03-30T05:39:30.045Z,8.84
2019-03-30T05:40:29.976Z,8.84
2019-03-30T05:41:29.955Z,8.92
2019-03-30T05:42:29.928Z,8.84
2019-03-30T05:43:29.901Z,8.89
2019-03-30T05:44:29.884Z,9.02
2019-03-30T05:45:29.852Z,8.91
2019-03-30T05:46:29.823Z,9.03
2019-03-30T05:47:29.801Z,9.08
2019-03-30T05:48:29.772Z,9.11
2019-03-30T05:49:29.747Z,9.16
2019-03-30T05:50:29.731Z,9.18
2019-03-30T05:51:29.699Z,9.19
2019-03-30T05:52:31.645Z,9.21
2019-03-30T05:53:29.656Z,9.18
2019-03-30T05:54:29.623Z,9.23
2019-03-30T05:55:29.599Z,9.23
2019-03-30T05:56:29.571Z,9.16
2019-03-30T05:57:29.539Z,9.31
2019-03-30T05:58:29.516Z,9.4
2019-03-30T05:59:29.492Z,9.36
2019-03-30T06:00:29.472Z,9.37
2019-03-30T06:01:29.441Z,9.46
2019-03-30T06:02:29.424Z,9.54
2019-03-30T06:03:29.391Z,9.51
2019-03-30T06:04:29.372Z,9.47
2019-03-30T06:05:29.347Z,9.46
2019-03-30T06:06:29.319Z,9.48
2019-03-30T06:07:29.291Z,9.59
2019-03-30T06:08:29.273Z,9.59
2019-03-30T06:09:29.243Z,9.59
2019-03-30T06:10:29.217Z,9.58
2019-03-30T06:11:29.188Z,9.76
2019-03-30T06:12:29.180Z,9.74
2019-03-30T06:13:29.149Z,9.82
2019-03-30T06:14:29.121Z,9.84
2019-03-30T06:15:29.093Z,9.86
2019-03-30T06:16:29.070Z,9.86
2019-03-30T06:17:29.051Z,9.97
2019-03-30T06:18:29.044Z,10.01
2019-03-30T06:19:28.763Z,10.09
2019-03-30T06:20:28.968Z,10.23
2019-03-30T06:21:28.950Z,10.2
2019-03-30T06:22:42.083Z,10.28
2019-03-30T06:23:28.895Z,10.3
2019-03-30T06:24:28.878Z,10.19
2019-03-30T06:25:28.857Z,10.22
2019-03-30T06:26:28.830Z,10.37
2019-03-30T06:27:28.802Z,10.41
2019-03-30T06:28:28.784Z,10.49
2019-03-30T06:29:28.751Z,10.42
2019-03-30T06:30:28.744Z,10.49
2019-03-30T06:31:28.709Z,10.46
2019-03-30T06:32:28.676Z,10.54
2019-03-30T06:33:28.659Z,10.57
2019-03-30T06:34:28.631Z,10.64
2019-03-30T06:35:28.617Z,10.6
2019-03-30T06:36:28.580Z,10.61
2019-03-30T06:37:28.558Z,10.59
2019-03-30T06:38:28.533Z,10.68
2019-03-30T06:39:28.511Z,10.74
2019-03-30T06:40:28.489Z,10.69
2019-03-30T06:41:28.461Z,10.71
2019-03-30T06:42:28.442Z,10.78
2019-03-30T06:43:28.414Z,10.81
2019-03-30T06:44:28.389Z,10.76
2019-03-30T06:45:28.370Z,10.76
2019-03-30T06:46:28.342Z,10.9
2019-03-30T06:47:28.315Z,11.02
2019-03-30T06:48:28.296Z,10.94
2019-03-30T06:49:28.275Z,11.1
2019-03-30T06:50:28.251Z,10.97
2019-03-30T06:51:28.225Z,11.05
2019-03-30T06:52:28.300Z,11.1
2019-03-30T06:53:28.178Z,11.14
2019-03-30T06:54:27.921Z,11.18
2019-03-30T06:55:28.140Z,11.19
2019-03-30T06:56:28.163Z,11.27
2019-03-30T06:57:28.081Z,11.29
2019-03-30T06:58:30.650Z,11.41
2019-03-30T06:59:28.039Z,11.47
2019-03-30T07:00:28.019Z,11.37
2019-03-30T07:01:27.992Z,11.45
2019-03-30T07:02:27.964Z,11.52
2019-03-30T07:03:27.943Z,11.48
2019-03-30T07:04:27.923Z,11.52
2019-03-30T07:05:27.662Z,11.55
2019-03-30T07:06:27.883Z,11.59
2019-03-30T07:07:27.854Z,11.62
2019-03-30T07:08:27.834Z,11.63
2019-03-30T07:09:27.811Z,11.65
2019-03-30T07:10:27.782Z,11.78
2019-03-30T07:11:27.754Z,11.77
2019-03-30T07:12:27.835Z,11.84
2019-03-30T07:13:27.716Z,11.88
2019-03-30T07:14:27.697Z,11.95
2019-03-30T07:15:27.667Z,11.91
2019-03-30T07:16:27.643Z,11.95
2019-03-30T07:17:27.625Z,12.02
2019-03-30T07:18:27.604Z,12.03
2019-03-30T07:19:27.608Z,12.22
2019-03-30T07:20:27.555Z,12.18
2019-03-30T07:21:27.534Z,12.25
2019-03-30T07:22:27.507Z,12.17
2019-03-30T07:23:27.252Z,12.31
2019-03-30T07:24:27.467Z,12.25
2019-03-30T07:25:27.441Z,12.29
2019-03-30T07:26:27.417Z,12.36
2019-03-30T07:27:27.392Z,12.42
2019-03-30T07:28:27.373Z,12.29
2019-03-30T07:29:27.356Z,12.49
2019-03-30T07:30:27.097Z,12.45
2019-03-30T07:31:27.305Z,12.47
2019-03-30T07:32:27.287Z,12.54
2019-03-30T07:33:27.261Z,12.55
2019-03-30T07:34:27.245Z,12.6
2019-03-30T07:35:27.224Z,12.6
2019-03-30T07:36:27.207Z,12.68
2019-03-30T07:37:27.176Z,12.75
2019-03-30T07:38:27.157Z,12.79
2019-03-30T07:39:27.131Z,12.8
2019-03-30T07:40:27.110Z,12.8
2019-03-30T07:41:27.087Z,12.82
2019-03-30T07:42:27.068Z,12.85
2019-03-30T07:43:27.042Z,12.91
2019-03-30T07:44:27.017Z,13.04
2019-03-30T07:45:26.994Z,12.95
2019-03-30T07:46:26.978Z,13.03
2019-03-30T07:47:27.036Z,13.16
2019-03-30T07:48:26.927Z,13.2
2019-03-30T07:49:26.909Z,13.33
2019-03-30T07:50:26.889Z,13.47
2019-03-30T07:51:26.872Z,13.46
2019-03-30T07:52:26.843Z,13.52
2019-03-30T07:53:43.743Z,13.56
2019-03-30T07:54:26.803Z,13.72
2019-03-30T07:55:26.780Z,13.72
2019-03-30T07:56:26.753Z,13.74
2019-03-30T07:57:26.745Z,13.85
2019-03-30T07:58:26.720Z,13.95
2019-03-30T07:59:26.703Z,13.93
2019-03-30T08:00:32.935Z,13.97
2019-03-30T08:01:26.654Z,14.08
2019-03-30T08:02:26.634Z,14.12
2019-03-30T08:03:26.613Z,14.12
2019-03-30T08:04:28.601Z,14.17
2019-03-30T08:05:26.652Z,14.23
2019-03-30T08:06:26.545Z,14.2
2019-03-30T08:07:26.527Z,14.33
2019-03-30T08:08:26.178Z,14.41
2019-03-30T08:09:26.485Z,14.35
2019-03-30T08:10:26.558Z,14.47
2019-03-30T08:11:26.441Z,14.48
2019-03-30T08:12:26.418Z,14.5
2019-03-30T08:13:26.401Z,14.48
2019-03-30T08:14:26.475Z,14.62
2019-03-30T08:15:26.367Z,14.59
2019-03-30T08:16:26.334Z,14.62
2019-03-30T08:17:26.318Z,14.72
2019-03-30T08:18:26.308Z,14.7
2019-03-30T08:19:26.700Z,14.7
2019-03-30T08:20:26.260Z,14.72
2019-03-30T08:21:26.233Z,14.81
2019-03-30T08:22:26.213Z,14.86
2019-03-30T08:23:39.438Z,14.85
2019-03-30T08:24:27.558Z,14.94
2019-03-30T08:25:26.153Z,14.91
2019-03-30T08:26:26.137Z,15.03
2019-03-30T08:27:26.117Z,15.02
2019-03-30T08:28:26.095Z,15.14
2019-03-30T08:29:26.651Z,15.03
2019-03-30T08:30:26.059Z,15.14
2019-03-30T08:31:26.039Z,15.27
2019-03-30T08:32:26.013Z,15.27
2019-03-30T08:33:25.989Z,15.33
2019-03-30T08:34:25.972Z,15.39
2019-03-30T08:35:25.980Z,15.4
2019-03-30T08:36:25.975Z,15.42
2019-03-30T08:37:25.921Z,15.49
2019-03-30T08:38:25.893Z,15.46
2019-03-30T08:39:25.873Z,15.55
2019-03-30T08:40:25.851Z,15.55
2019-03-30T08:41:27.036Z,15.59
2019-03-30T08:42:25.809Z,15.67
2019-03-30T08:43:25.793Z,15.75
2019-03-30T08:44:25.537Z,15.75
2019-03-30T08:45:25.783Z,15.79
2019-03-30T08:46:25.736Z,15.86
2019-03-30T08:47:25.721Z,15.92
2019-03-30T08:48:25.699Z,16.04
2019-03-30T08:49:25.696Z,16.05
2019-03-30T08:50:25.660Z,16.13
2019-03-30T08:51:25.754Z,16.23
2019-03-30T08:52:25.619Z,16.36
2019-03-30T08:53:25.603Z,16.41
2019-03-30T08:54:25.585Z,16.41
2019-03-30T08:55:25.564Z,16.49
2019-03-30T08:56:27.952Z,16.54
2019-03-30T08:57:25.583Z,16.66
2019-03-30T08:58:25.537Z,16.66
2019-03-30T08:59:25.494Z,16.78
2019-03-30T09:00:25.482Z,16.89
2019-03-30T09:01:25.466Z,17.04
2019-03-30T09:02:25.443Z,17.04
2019-03-30T09:03:25.425Z,16.93
2019-03-30T09:04:25.454Z,16.96
2019-03-30T09:05:25.381Z,17.06
2019-03-30T09:06:25.385Z,17.02
2019-03-30T09:07:25.119Z,17.09
2019-03-30T09:08:25.330Z,17.16
2019-03-30T09:09:25.318Z,17.15
2019-03-30T09:10:25.294Z,17.24
2019-03-30T09:11:25.283Z,17.2
2019-03-30T09:12:25.269Z,17.26
2019-03-30T09:13:25.249Z,17.34
2019-03-30T09:14:25.227Z,17.45
2019-03-30T09:15:25.214Z,17.48
2019-03-30T09:16:25.241Z,17.48
2019-03-30T09:17:25.183Z,17.46
2019-03-30T09:18:25.163Z,17.48
2019-03-30T09:19:25.144Z,17.48
2019-03-30T09:20:25.125Z,17.44
2019-03-30T09:21:25.119Z,17.45
2019-03-30T09:22:25.097Z,17.45
2019-03-30T09:23:25.077Z,17.44
2019-03-30T09:24:25.058Z,17.52
2019-03-30T09:25:25.049Z,17.51
2019-03-30T09:26:25.032Z,17.51
2019-03-30T09:27:25.019Z,17.52
2019-03-30T09:28:24.996Z,17.45
2019-03-30T09:29:24.974Z,17.51
2019-03-30T09:30:24.963Z,17.63
2019-03-30T09:31:24.942Z,17.7
2019-03-30T09:32:24.923Z,17.72
2019-03-30T09:33:24.916Z,17.76
2019-03-30T09:34:24.891Z,17.79
2019-03-30T09:35:24.872Z,17.8
2019-03-30T09:36:24.884Z,17.78
2019-03-30T09:37:24.841Z,17.76
2019-03-30T09:38:24.828Z,17.83
2019-03-30T09:39:24.808Z,17.72
2019-03-30T09:40:24.791Z,17.72
2019-03-30T09:41:24.722Z,17.72
2019-03-30T09:42:24.763Z,17.7
2019-03-30T09:43:24.793Z,17.68
2019-03-30T09:44:24.724Z,17.7
2019-03-30T09:45:24.704Z,17.7
2019-03-30T09:46:24.684Z,17.7
2019-03-30T09:47:24.670Z,17.76
2019-03-30T09:48:24.651Z,17.79
2019-03-30T09:49:24.659Z,17.83
2019-03-30T09:50:24.619Z,17.85
2019-03-30T09:51:24.600Z,17.79
2019-03-30T09:52:24.586Z,17.86
2019-03-30T09:53:24.566Z,17.86
2019-03-30T09:54:29.234Z,17.78
2019-03-30T09:55:27.144Z,17.89
2019-03-30T09:56:24.289Z,17.87
2019-03-30T09:57:24.496Z,17.79
2019-03-30T09:58:24.481Z,17.82
2019-03-30T09:59:24.461Z,17.89
2019-03-30T10:00:24.446Z,18.03
2019-03-30T10:01:24.429Z,17.97
2019-03-30T10:02:24.412Z,18.1
2019-03-30T10:03:24.392Z,18.13
2019-03-30T10:04:24.375Z,18.07
2019-03-30T10:05:24.385Z,18.07
2019-03-30T10:06:36.351Z,18.11
2019-03-30T10:07:24.325Z,18.07
2019-03-30T10:08:24.306Z,18.04
2019-03-30T10:09:24.284Z,17.97
2019-03-30T10:10:24.272Z,18.05
2019-03-30T10:11:24.261Z,18.15
2019-03-30T10:12:24.289Z,18.22
2019-03-30T10:13:24.216Z,18.18
2019-03-30T10:14:24.202Z,18.2
2019-03-30T10:15:24.185Z,18.2
2019-03-30T10:16:24.172Z,18.33
2019-03-30T10:17:24.153Z,18.33
2019-03-30T10:18:24.142Z,18.38
2019-03-30T10:19:27.695Z,18.31
2019-03-30T10:20:24.100Z,18.35
2019-03-30T10:21:24.080Z,18.41
2019-03-30T10:22:24.070Z,18.43
2019-03-30T10:23:24.055Z,18.37
2019-03-30T10:24:37.077Z,18.31
2019-03-30T10:25:24.016Z,18.44
2019-03-30T10:26:23.994Z,18.41
2019-03-30T10:27:23.982Z,18.35
2019-03-30T10:28:23.960Z,18.33
2019-03-30T10:29:23.959Z,18.23
2019-03-30T10:30:23.927Z,18.25
2019-03-30T10:31:25.419Z,18.15
2019-03-30T10:32:25.159Z,18.25
2019-03-30T10:33:23.875Z,18.31
2019-03-30T10:34:23.862Z,18.2
2019-03-30T10:35:23.845Z,18.18
2019-03-30T10:36:23.825Z,18.33
2019-03-30T10:37:23.906Z,18.33
2019-03-30T10:38:23.810Z,18.37
2019-03-30T10:39:23.771Z,18.5
2019-03-30T10:40:25.691Z,18.55
2019-03-30T10:41:23.740Z,18.58
2019-03-30T10:42:23.723Z,18.52
2019-03-30T10:43:23.702Z,18.5
2019-03-30T10:44:23.691Z,18.55
2019-03-30T10:45:23.665Z,18.52
2019-03-30T10:46:24.224Z,18.49
2019-03-30T10:47:23.643Z,18.4
2019-03-30T10:48:23.623Z,18.45
2019-03-30T10:49:23.602Z,18.43
2019-03-30T10:50:23.586Z,18.35
2019-03-30T10:51:23.570Z,18.35
2019-03-30T10:52:24.634Z,18.33
2019-03-30T10:53:23.536Z,18.31
2019-03-30T10:54:23.512Z,18.33
2019-03-30T10:55:23.590Z,18.29
2019-03-30T10:56:23.482Z,18.31
2019-03-30T10:57:23.462Z,18.28
2019-03-30T10:58:23.443Z,18.31
2019-03-30T10:59:23.464Z,18.33
2019-03-30T11:00:23.416Z,18.31
2019-03-30T11:01:23.436Z,18.28
2019-03-30T11:02:23.384Z,18.33
2019-03-30T11:03:23.121Z,18.29
2019-03-30T11:04:23.340Z,18.29
2019-03-30T11:05:23.329Z,18.37
2019-03-30T11:06:23.309Z,18.37
2019-03-30T11:07:23.382Z,18.28
2019-03-30T11:08:23.273Z,18.5
2019-03-30T11:09:23.259Z,18.45
2019-03-30T11:10:23.242Z,18.49
2019-03-30T11:11:23.030Z,18.38
2019-03-30T11:12:23.206Z,18.35
2019-03-30T11:13:23.190Z,18.29
2019-03-30T11:14:23.171Z,18.29
2019-03-30T11:15:23.155Z,18.26
2019-03-30T11:16:23.143Z,18.28
2019-03-30T11:17:24.242Z,18.2
2019-03-30T11:18:23.100Z,18.22
2019-03-30T11:19:23.089Z,18.19
2019-03-30T11:20:23.073Z,18.26
2019-03-30T11:21:23.052Z,18.26
2019-03-30T11:22:23.036Z,18.23
2019-03-30T11:23:23.019Z,18.33
2019-03-30T11:24:23.002Z,18.35
2019-03-30T11:25:22.984Z,18.4
2019-03-30T11:26:22.971Z,18.31
2019-03-30T11:27:22.995Z,18.41
2019-03-30T11:28:22.935Z,18.52
2019-03-30T11:29:22.916Z,18.6
2019-03-30T11:30:22.899Z,18.58
2019-03-30T11:31:22.935Z,18.63
2019-03-30T11:32:22.862Z,18.52
2019-03-30T11:33:22.846Z,18.55
2019-03-30T11:34:22.829Z,18.49
2019-03-30T11:35:22.816Z,18.58
2019-03-30T11:36:23.555Z,18.66
2019-03-30T11:37:22.776Z,18.58
2019-03-30T11:38:22.765Z,18.66
2019-03-30T11:39:22.749Z,18.62
2019-03-30T11:40:22.728Z,18.65
2019-03-30T11:41:24.911Z,18.59
2019-03-30T11:42:22.695Z,18.45
2019-03-30T11:43:22.683Z,18.5
2019-03-30T11:44:22.657Z,18.45
2019-03-30T11:45:22.650Z,18.45
2019-03-30T11:46:22.628Z,18.45
2019-03-30T11:47:22.608Z,18.52
2019-03-30T11:48:22.592Z,18.58
2019-03-30T11:49:22.576Z,18.58
2019-03-30T11:50:22.557Z,18.63
2019-03-30T11:51:22.545Z,18.6
2019-03-30T11:52:22.567Z,18.7
2019-03-30T11:53:22.508Z,18.74
2019-03-30T11:54:22.492Z,18.8
2019-03-30T11:55:26.834Z,18.89
2019-03-30T11:56:22.458Z,19.04
2019-03-30T11:57:22.454Z,19.07
2019-03-30T11:58:22.423Z,19.02
2019-03-30T11:59:22.406Z,19.04
2019-03-30T12:00:22.392Z,19.02
2019-03-30T12:01:24.220Z,19.02
2019-03-30T12:02:32.782Z,18.98
2019-03-30T12:03:22.346Z,19.15
2019-03-30T12:04:22.337Z,19.02
2019-03-30T12:05:22.313Z,19.07
2019-03-30T12:06:22.054Z,19.11
2019-03-30T12:07:22.277Z,19.26
2019-03-30T12:08:22.266Z,19.18
2019-03-30T12:09:22.363Z,19.15
2019-03-30T12:10:22.227Z,19.22
2019-03-30T12:11:22.419Z,19.24
2019-03-30T12:12:22.290Z,19.22
2019-03-30T12:13:22.203Z,19.24
2019-03-30T12:14:22.164Z,19.21
2019-03-30T12:15:22.316Z,19.11
2019-03-30T12:16:22.144Z,19.21
2019-03-30T12:17:22.126Z,19.3
2019-03-30T12:18:22.100Z,19.37
2019-03-30T12:19:22.084Z,19.45
2019-03-30T12:20:22.074Z,19.56
2019-03-30T12:21:22.053Z,19.49
2019-03-30T12:22:22.041Z,19.69
2019-03-30T12:23:22.027Z,19.74
2019-03-30T12:24:22.009Z,19.74
2019-03-30T12:25:34.722Z,19.7
2019-03-30T12:26:22.020Z,19.63
2019-03-30T12:27:21.962Z,19.64
2019-03-30T12:28:21.948Z,19.56
2019-03-30T12:29:22.017Z,19.56
2019-03-30T12:30:22.138Z,19.48
2019-03-30T12:31:21.913Z,19.49
2019-03-30T12:32:21.897Z,19.44
2019-03-30T12:33:21.877Z,19.37
2019-03-30T12:34:21.864Z,19.4
2019-03-30T12:35:21.837Z,19.4
2019-03-30T12:36:21.827Z,19.48
2019-03-30T12:37:21.894Z,19.49
2019-03-30T12:38:21.795Z,19.45
2019-03-30T12:39:21.776Z,19.51
2019-03-30T12:40:21.802Z,19.64
2019-03-30T12:41:23.996Z,19.74
2019-03-30T12:42:22.641Z,19.86
2019-03-30T12:43:21.775Z,19.99
2019-03-30T12:44:21.702Z,20.04
2019-03-30T12:45:21.686Z,20.07
2019-03-30T12:46:21.454Z,20.18
2019-03-30T12:47:21.669Z,20.32
2019-03-30T12:48:21.641Z,20.32
2019-03-30T12:49:21.625Z,20.37
2019-03-30T12:50:21.612Z,20.41
2019-03-30T12:51:21.597Z,20.29
2019-03-30T12:52:21.582Z,20.21
2019-03-30T12:53:21.579Z,20.24
2019-03-30T12:54:21.552Z,20.26
2019-03-30T12:55:21.540Z,20.21
2019-03-30T12:56:21.532Z,20.14
2019-03-30T12:57:21.510Z,20.19
2019-03-30T12:58:21.502Z,20.07
2019-03-30T12:59:21.481Z,20.1
2019-03-30T13:00:21.466Z,20.03
2019-03-30T13:01:21.465Z,20.11
2019-03-30T13:02:21.443Z,20.04
2019-03-30T13:03:21.336Z,19.94
2019-03-30T13:04:21.214Z,19.86
2019-03-30T13:05:21.395Z,19.88
2019-03-30T13:06:21.382Z,19.99